Time;durP1;ratioP1;P1;durP2;ratioP2;P2;SDS_P1;SDS_P2;PMS_P1;PMS_P2;Temp;Humidity;BMP_temperature;BMP_pressure;BME280_temperature;BME280_humidity;BME280_pressure;Samples;Min_cycle;Max_cycle;Signal;HPM_P1;HPM_P2
2023/07/09 00:00:53;;;;;;;4.30;2.30;;;;;;;22.23;53.13;99712.43;105723;1256;65232;-75
2023/07/09 00:03:19;;;;;;;5.20;2.20;;;;;;;22.22;53.04;99710.05;105786;1256;60529;-74
2023/07/09 00:05:47;;;;;;;5.30;2.10;;;;;;;22.22;52.99;99707.36;105787;1256;60459;-74
2023/07/09 00:08:22;;;;;;;5.10;2.30;;;;;;;22.22;53.14;99708.35;105864;1257;60322;-74
2023/07/09 00:10:49;;;;;;;6.00;2.50;;;;;;;22.20;53.13;99709.60;105781;1254;60444;-74
2023/07/09 00:13:16;;;;;;;4.60;2.30;;;;;;;22.18;53.11;99709.17;105838;1251;65255;-74
2023/07/09 00:15:43;;;;;;;6.80;2.30;;;;;;;22.17;52.99;99708.98;105836;1251;60418;-74
2023/07/09 00:18:10;;;;;;;5.50;2.30;;;;;;;22.17;53.11;99711.12;105803;1253;63811;-74
2023/07/09 00:20:38;;;;;;;7.50;2.50;;;;;;;22.18;53.06;99706.36;105652;1252;60489;-74
2023/07/09 00:23:05;;;;;;;7.00;2.40;;;;;;;22.17;53.18;99704.34;105767;1252;60480;-74
2023/07/09 00:25:35;;;;;;;4.10;2.00;;;;;;;22.16;53.11;99703.56;105750;1255;65139;-73
2023/07/09 00:28:02;;;;;;;4.90;2.30;;;;;;;22.16;53.08;99705.23;105769;1255;60545;-74
2023/07/09 00:30:32;;;;;;;3.70;2.20;;;;;;;22.15;52.98;99711.42;105796;1254;63939;-74
2023/07/09 00:32:59;;;;;;;3.30;2.10;;;;;;;22.15;53.12;99711.27;105756;1259;60443;-74
2023/07/09 00:35:25;;;;;;;6.20;2.30;;;;;;;22.15;53.24;99707.91;105756;1252;60438;-73
2023/07/09 00:37:54;;;;;;;9.30;2.60;;;;;;;22.14;53.18;99702.52;105794;1256;65183;-73
2023/07/09 00:40:22;;;;;;;3.10;2.10;;;;;;;22.13;53.16;99699.95;105715;1253;60457;-74
2023/07/09 00:42:52;;;;;;;4.90;2.50;;;;;;;22.11;53.10;99699.41;105672;1253;64041;-74
2023/07/09 00:45:22;;;;;;;3.50;2.20;;;;;;;22.09;53.33;99698.96;105757;1256;60290;-73
2023/07/09 00:48:01;;;;;;;3.90;2.40;;;;;;;22.10;53.46;99699.76;105532;1253;60521;-75
2023/07/09 00:50:45;;;;;;;3.50;2.20;;;;;;;22.09;53.37;99695.39;105596;1258;61267;-73
2023/07/09 00:53:18;;;;;;;;;;;;;;;22.07;53.15;99697.02;105796;1254;60520;-74
2023/07/09 00:55:49;;;;;;;4.00;2.40;;;;;;;22.05;53.08;99695.40;105689;1258;62835;-74
2023/07/09 00:58:16;;;;;;;6.20;2.20;;;;;;;22.03;53.08;99694.54;105948;1256;60527;-74
2023/07/09 01:00:47;;;;;;;3.70;2.00;;;;;;;22.02;53.02;99693.92;106009;1252;60444;-74
2023/07/09 01:03:20;;;;;;;4.70;2.10;;;;;;;22.03;52.97;99693.58;105822;1251;65227;-74
2023/07/09 01:05:51;;;;;;;4.60;2.10;;;;;;;22.03;52.90;99695.65;105908;1254;60533;-73
2023/07/09 01:08:19;;;;;;;3.50;2.20;;;;;;;22.03;52.67;99696.27;105869;1253;64003;-74
2023/07/09 01:10:47;;;;;;;6.10;2.30;;;;;;;22.01;52.63;99696.85;106030;1253;60450;-75
2023/07/09 01:13:14;;;;;;;4.70;2.30;;;;;;;22.00;52.90;99700.41;105972;1253;60409;-73
2023/07/09 01:15:42;;;;;;;6.00;2.40;;;;;;;22.01;52.92;99704.06;105841;1256;65313;-73
2023/07/09 01:18:10;;;;;;;5.10;2.20;;;;;;;22.02;52.92;99703.11;105662;1257;60402;-74
2023/07/09 01:20:38;;;;;;;3.90;2.40;;;;;;;22.02;52.77;99703.23;105641;1253;64077;-73
2023/07/09 01:23:05;;;;;;;5.20;2.40;;;;;;;22.00;52.74;99703.06;105767;1252;60338;-74
2023/07/09 01:25:32;;;;;;;3.80;1.90;;;;;;;22.00;52.62;99702.91;105888;1254;60486;-73
2023/07/09 01:28:00;;;;;;;6.20;2.70;;;;;;;22.00;52.41;99704.59;105758;1255;65255;-73
2023/07/09 01:30:34;;;;;;;4.50;2.20;;;;;;;22.00;52.42;99708.14;105960;1254;60499;-74
2023/07/09 01:33:02;;;;;;;4.30;2.20;;;;;;;22.00;52.43;99707.23;105696;1253;62804;-74
2023/07/09 01:35:30;;;;;;;7.50;2.30;;;;;;;21.99;52.47;99710.34;105627;1253;60472;-73
2023/07/09 01:37:57;;;;;;;4.60;2.20;;;;;;;21.99;52.49;99713.43;105774;1253;60483;-74
2023/07/09 01:40:24;;;;;;;5.20;2.30;;;;;;;21.99;52.40;99711.58;105778;1253;63719;-74
2023/07/09 01:43:00;;;;;;;5.30;2.10;;;;;;;21.99;52.53;99710.50;105802;1253;60514;-73
2023/07/09 01:45:28;;;;;;;7.80;2.20;;;;;;;21.98;52.39;99713.77;105733;1257;64108;-73
2023/07/09 01:47:55;;;;;;;7.50;2.40;;;;;;;21.97;52.37;99720.90;105751;1256;60432;-73
2023/07/09 01:50:24;;;;;;;2.50;2.00;;;;;;;21.96;52.50;99722.05;105827;1254;60402;-73
2023/07/09 01:52:51;;;;;;;6.90;2.30;;;;;;;21.95;52.59;99720.29;105831;1256;65342;-73
2023/07/09 01:55:19;;;;;;;3.90;2.00;;;;;;;21.93;52.77;99728.73;105746;1254;60530;-73
2023/07/09 01:57:46;;;;;;;7.70;2.30;;;;;;;21.93;52.68;99730.02;105856;1257;64008;-73
2023/07/09 02:00:14;;;;;;;7.60;2.40;;;;;;;21.95;52.63;99734.10;105923;1253;60490;-74
2023/07/09 02:02:45;;;;;;;3.60;2.10;;;;;;;21.95;52.60;99736.59;105866;1253;60412;-73
2023/07/09 02:05:14;;;;;;;4.70;2.20;;;;;;;21.95;52.54;99737.86;105693;1257;64926;-73
2023/07/09 02:07:42;;;;;;;3.90;2.20;;;;;;;21.95;52.46;99738.98;105849;1253;60438;-73
2023/07/09 02:10:10;;;;;;;3.90;2.30;;;;;;;21.94;52.45;99746.35;105918;1254;64069;-73
2023/07/09 02:12:37;;;;;;;5.70;2.30;;;;;;;21.94;52.54;99745.98;105866;1258;60386;-73
2023/07/09 02:15:04;;;;;;;5.30;2.30;;;;;;;21.95;52.28;99744.65;105831;1255;60474;-73
2023/07/09 02:17:31;;;;;;;9.00;2.00;;;;;;;21.96;52.21;99743.33;105919;1258;64914;-73
2023/07/09 02:19:58;;;;;;;4.50;2.40;;;;;;;21.96;52.33;99744.90;105926;1254;60437;-73
2023/07/09 02:22:24;;;;;;;4.90;1.90;;;;;;;21.96;52.23;99745.65;105753;1259;62599;-73
2023/07/09 02:24:52;;;;;;;3.00;2.00;;;;;;;21.96;52.35;99748.17;105896;1257;60521;-74
2023/07/09 02:27:19;;;;;;;2.90;2.00;;;;;;;21.95;52.22;99749.83;105989;1257;60426;-73
2023/07/09 02:29:46;;;;;;;6.80;2.50;;;;;;;21.96;52.20;99752.47;106005;1254;65247;-74
2023/07/09 02:32:23;;;;;;;6.50;2.50;;;;;;;21.95;52.18;99753.46;105755;1254;60464;-73
2023/07/09 02:34:52;;;;;;;8.60;1.90;;;;;;;21.94;52.20;99756.81;105676;1257;63764;-73
2023/07/09 02:37:24;;;;;;;5.60;2.10;;;;;;;21.94;52.45;99753.10;105760;1253;60480;-73
2023/07/09 02:39:50;;;;;;;3.90;2.20;;;;;;;21.93;52.53;99751.73;105780;1251;61136;-73
2023/07/09 02:42:18;;;;;;;6.80;2.30;;;;;;;21.94;52.53;99753.59;105708;1256;65001;-73
2023/07/09 02:44:45;;;;;;;5.00;2.10;;;;;;;21.94;52.59;99759.39;105750;1256;60473;-73
2023/07/09 02:47:12;;;;;;;4.30;2.10;;;;;;;21.91;52.54;99758.29;105617;1256;63839;-73
2023/07/09 02:49:39;;;;;;;7.30;2.20;;;;;;;21.90;52.54;99759.71;105986;1253;60393;-73
2023/07/09 02:52:07;;;;;;;4.00;2.00;;;;;;;21.89;52.47;99760.70;105984;1254;60438;-73
2023/07/09 02:54:35;;;;;;;4.50;2.10;;;;;;;21.90;52.62;99758.96;105903;1253;65041;-73
2023/07/09 02:57:02;;;;;;;3.40;2.20;;;;;;;21.90;52.63;99761.25;105900;1257;61096;-73
2023/07/09 02:59:29;;;;;;;3.60;2.10;;;;;;;21.91;52.72;99761.92;105773;1257;64078;-73
2023/07/09 03:01:57;;;;;;;3.40;2.20;;;;;;;21.89;52.68;99764.80;105666;1257;60368;-73
2023/07/09 03:04:24;;;;;;;4.30;2.20;;;;;;;21.89;52.62;99762.20;105778;1254;60453;-73
2023/07/09 03:06:52;;;;;;;3.70;2.20;;;;;;;21.89;52.62;99757.64;105751;1254;65097;-73
2023/07/09 03:09:19;;;;;;;3.20;1.90;;;;;;;21.89;52.58;99754.88;105864;1253;62127;-73
2023/07/09 03:11:46;;;;;;;5.20;2.20;;;;;;;21.89;52.72;99757.52;105710;1259;63767;-73
2023/07/09 03:14:13;;;;;;;5.20;2.10;;;;;;;21.90;52.62;99757.05;105831;1257;60607;-73
2023/07/09 03:16:40;;;;;;;5.60;2.30;;;;;;;21.91;52.61;99756.20;105914;1253;60438;-73
2023/07/09 03:19:07;;;;;;;5.10;2.20;;;;;;;21.92;52.66;99754.92;105753;1266;65280;-73
2023/07/09 03:21:34;;;;;;;5.30;2.10;;;;;;;21.94;52.58;99757.14;105947;1264;60442;-73
2023/07/09 03:24:01;;;;;;;4.90;2.20;;;;;;;21.94;52.67;99758.17;105900;1251;63834;-73
2023/07/09 03:26:28;;;;;;;5.50;2.10;;;;;;;21.94;52.65;99756.94;105758;1256;60447;-73
2023/07/09 03:28:55;;;;;;;3.30;2.00;;;;;;;21.95;52.65;99758.48;105984;1257;60463;-73
2023/07/09 03:31:22;;;;;;;5.30;2.00;;;;;;;21.96;52.66;99757.39;105873;1251;65233;-73
2023/07/09 03:33:49;;;;;;;5.20;2.00;;;;;;;21.95;52.52;99760.20;105718;1258;60426;-73
2023/07/09 03:36:16;;;;;;;3.30;2.00;;;;;;;21.96;52.65;99760.48;105630;1257;64429;-73
2023/07/09 03:38:43;;;;;;;3.50;2.10;;;;;;;21.96;52.62;99761.07;105792;1251;60556;-73
2023/07/09 03:41:09;;;;;;;7.70;2.50;;;;;;;21.95;52.63;99760.73;105915;1258;60428;-73
2023/07/09 03:43:36;;;;;;;7.60;2.20;;;;;;;21.98;52.63;99761.05;105788;1255;65334;-74
2023/07/09 03:46:03;;;;;;;8.30;2.20;;;;;;;21.99;52.66;99762.16;105963;1256;60403;-74
2023/07/09 03:48:30;;;;;;;4.70;2.50;;;;;;;22.01;52.67;99762.55;105881;1255;64128;-73
2023/07/09 03:50:57;;;;;;;4.00;2.10;;;;;;;22.02;52.65;99766.98;105869;1254;60426;-73
2023/07/09 03:53:24;;;;;;;3.90;2.30;;;;;;;22.04;52.54;99764.24;105996;1257;60389;-74
2023/07/09 03:55:52;;;;;;;4.00;2.10;;;;;;;22.05;52.51;99764.32;105861;1251;63761;-74
2023/07/09 03:58:20;;;;;;;8.00;2.40;;;;;;;22.06;52.59;99764.56;105908;1256;60454;-73
2023/07/09 04:00:46;;;;;;;4.10;2.00;;;;;;;22.06;52.46;99759.89;105961;1257;63783;-73
2023/07/09 04:03:13;;;;;;;3.20;2.20;;;;;;;22.07;52.45;99760.44;105864;1254;60335;-74
2023/07/09 04:05:41;;;;;;;5.10;2.20;;;;;;;22.11;52.53;99762.77;105823;1257;60451;-74
2023/07/09 04:08:07;;;;;;;3.90;2.20;;;;;;;22.14;52.28;99761.27;105908;1258;65010;-73
2023/07/09 04:10:34;;;;;;;4.10;2.00;;;;;;;22.15;52.16;99765.98;105688;1257;60515;-74
2023/07/09 04:13:01;;;;;;;4.60;2.10;;;;;;;22.15;52.11;99761.80;105918;1256;63697;-74
2023/07/09 04:15:29;;;;;;;3.70;2.10;;;;;;;22.18;52.15;99762.81;105727;1257;60432;-74
2023/07/09 04:17:56;;;;;;;5.80;2.00;;;;;;;22.21;52.16;99767.24;105799;1257;60437;-74
2023/07/09 04:20:23;;;;;;;6.90;2.10;;;;;;;22.23;52.08;99768.08;105671;1257;65197;-74
2023/07/09 04:22:50;;;;;;;4.30;2.00;;;;;;;22.24;52.01;99770.25;105892;1254;60547;-74
2023/07/09 04:25:16;;;;;;;4.50;2.20;;;;;;;22.25;52.00;99771.85;106048;1253;63719;-74
2023/07/09 04:27:43;;;;;;;4.70;2.20;;;;;;;22.27;51.95;99770.89;105978;1252;60411;-74
2023/07/09 04:30:14;;;;;;;5.10;2.20;;;;;;;22.29;52.08;99773.13;105857;1256;60503;-73
2023/07/09 04:32:44;;;;;;;4.90;2.10;;;;;;;22.35;51.99;99774.55;105750;1256;65066;-74
2023/07/09 04:35:12;;;;;;;4.70;2.10;;;;;;;22.39;51.88;99774.20;105584;1259;60426;-74
2023/07/09 04:37:39;;;;;;;2.60;1.80;;;;;;;22.39;51.75;99766.42;105534;1257;63937;-74
2023/07/09 04:40:06;;;;;;;6.40;2.50;;;;;;;22.39;51.84;99772.14;105645;1267;60457;-74
2023/07/09 04:42:35;;;;;;;4.80;2.20;;;;;;;22.40;51.73;99773.63;105425;1252;60469;-74
2023/07/09 04:45:01;;;;;;;3.10;2.00;;;;;;;22.41;51.47;99772.48;105594;1257;60611;-74
2023/07/09 04:47:28;;;;;;;4.50;2.10;;;;;;;22.41;51.58;99775.29;105764;1256;60602;-74
2023/07/09 04:49:55;;;;;;;4.60;2.20;;;;;;;22.45;51.86;99777.99;105752;1257;64032;-74
2023/07/09 04:52:22;;;;;;;3.20;2.20;;;;;;;22.50;51.90;99778.89;105874;1255;60433;-74
2023/07/09 04:54:50;;;;;;;3.90;2.10;;;;;;;22.53;51.94;99780.85;105905;1254;60467;-74
2023/07/09 04:57:17;;;;;;;6.00;2.30;;;;;;;22.57;51.95;99780.55;105913;1257;65202;-74
2023/07/09 04:59:44;;;;;;;4.50;2.10;;;;;;;22.59;51.88;99775.95;105627;1254;60463;-74
2023/07/09 05:02:11;;;;;;;6.00;2.40;;;;;;;22.60;51.74;99776.11;105689;1257;64145;-74
2023/07/09 05:04:38;;;;;;;4.90;2.00;;;;;;;22.62;51.85;99776.05;105836;1256;60361;-74
2023/07/09 05:07:07;;;;;;;5.20;2.20;;;;;;;22.66;51.89;99775.70;106018;1253;60362;-73
2023/07/09 05:09:33;;;;;;;3.60;2.10;;;;;;;22.70;51.96;99770.84;105671;1256;64938;-74
2023/07/09 05:12:02;;;;;;;4.90;2.30;;;;;;;22.72;51.82;99769.79;105718;1253;60447;-74
2023/07/09 05:14:29;;;;;;;6.50;2.40;;;;;;;22.75;51.96;99769.93;105618;1255;63963;-74
2023/07/09 05:16:55;;;;;;;4.70;2.10;;;;;;;22.79;52.01;99774.61;105637;1257;60353;-74
2023/07/09 05:19:22;;;;;;;4.30;2.10;;;;;;;22.81;51.96;99777.16;105933;1252;60448;-74
2023/07/09 05:21:48;;;;;;;6.70;2.60;;;;;;;22.83;51.92;99766.63;105918;1256;60460;-74
2023/07/09 05:24:15;;;;;;;3.50;2.40;;;;;;;22.87;52.00;99768.95;105779;1257;60521;-74
2023/07/09 05:26:42;;;;;;;3.80;2.00;;;;;;;22.92;51.95;99770.95;105899;1255;64095;-74
2023/07/09 05:29:08;;;;;;;3.00;2.20;;;;;;;22.97;51.74;99767.06;105933;1257;60492;-74
2023/07/09 05:31:36;;;;;;;4.00;2.50;;;;;;;22.98;51.66;99767.94;105638;1254;60493;-73
2023/07/09 05:34:05;;;;;;;4.30;2.10;;;;;;;23.02;51.77;99770.42;105923;1252;65204;-74
2023/07/09 05:36:33;;;;;;;3.20;2.10;;;;;;;23.06;51.84;99774.67;105797;1256;60485;-74
2023/07/09 05:38:59;;;;;;;5.50;2.20;;;;;;;23.12;51.92;99777.86;105684;1257;60544;-74
2023/07/09 05:41:27;;;;;;;3.60;2.50;;;;;;;23.19;51.88;99774.83;105891;1257;60399;-74
2023/07/09 05:43:54;;;;;;;6.20;1.90;;;;;;;23.21;51.58;99774.28;105904;1253;60441;-74
2023/07/09 05:46:22;;;;;;;3.90;2.20;;;;;;;23.22;51.43;99777.46;105848;1257;64893;-73
2023/07/09 05:48:49;;;;;;;5.90;2.30;;;;;;;23.21;51.34;99777.96;105894;1255;60540;-74
2023/07/09 05:51:16;;;;;;;5.00;2.40;;;;;;;23.22;51.38;99777.33;105893;1256;64130;-74
2023/07/09 05:53:43;;;;;;;3.90;2.30;;;;;;;23.21;51.13;99779.50;105894;1258;60345;-74
2023/07/09 05:56:10;;;;;;;3.40;2.20;;;;;;;23.20;51.23;99781.49;105915;1254;60470;-74
2023/07/09 05:58:37;;;;;;;3.60;2.50;;;;;;;23.21;51.20;99778.21;105867;1258;65183;-74
2023/07/09 06:01:05;;;;;;;3.30;2.10;;;;;;;23.21;51.25;99781.33;105754;1255;60518;-74
2023/07/09 06:03:33;;;;;;;4.70;2.40;;;;;;;23.25;51.46;99782.13;105624;1255;64023;-74
2023/07/09 06:06:00;;;;;;;3.80;2.20;;;;;;;23.29;51.55;99780.56;105816;1251;60444;-74
2023/07/09 06:08:28;;;;;;;4.60;2.40;;;;;;;23.35;51.45;99774.70;105894;1251;60418;-74
2023/07/09 06:10:59;;;;;;;4.20;2.50;;;;;;;23.40;51.24;99781.66;105989;1251;60620;-74
2023/07/09 06:13:27;;;;;;;4.70;2.20;;;;;;;23.40;51.09;99781.93;106038;1256;60447;-74
2023/07/09 06:15:54;;;;;;;3.50;2.30;;;;;;;23.41;51.10;99782.86;105892;1251;64244;-74
2023/07/09 06:18:22;;;;;;;6.10;2.50;;;;;;;23.45;51.26;99782.47;105908;1251;60429;-73
2023/07/09 06:20:54;;;;;;;5.00;2.20;;;;;;;23.49;51.15;99786.90;105886;1251;60531;-74
2023/07/09 06:23:21;;;;;;;4.50;2.20;;;;;;;23.52;51.09;99787.16;105816;1256;65193;-73
2023/07/09 06:25:48;;;;;;;5.00;1.90;;;;;;;23.52;51.12;99786.46;105860;1256;60511;-74
2023/07/09 06:28:16;;;;;;;5.00;2.20;;;;;;;23.52;51.08;99789.58;105991;1256;64497;-74
2023/07/09 06:30:43;;;;;;;5.40;2.70;;;;;;;23.55;51.01;99796.38;105754;1251;60441;-74
2023/07/09 06:33:11;;;;;;;4.60;2.30;;;;;;;23.56;50.91;99797.23;105907;1252;61772;-74
2023/07/09 06:35:39;;;;;;;3.00;2.20;;;;;;;23.56;50.87;99798.15;105808;1254;63879;-74
2023/07/09 06:38:06;;;;;;;8.00;2.60;;;;;;;23.59;51.10;99797.55;105699;1254;60485;-74
2023/07/09 06:40:33;;;;;;;6.60;2.30;;;;;;;23.62;51.07;99797.02;105647;1254;64166;-74
2023/07/09 06:42:59;;;;;;;4.20;2.10;;;;;;;23.67;50.96;99797.95;105387;1260;60540;-74
2023/07/09 06:45:32;;;;;;;5.50;2.20;;;;;;;23.73;50.73;99798.42;105877;1257;60420;-74
2023/07/09 06:48:00;;;;;;;3.80;2.20;;;;;;;23.75;50.66;99797.22;105743;1254;63968;-74
2023/07/09 06:50:26;;;;;;;4.00;1.90;;;;;;;23.77;50.66;99798.28;105767;1252;60399;-73
2023/07/09 06:52:53;;;;;;;5.50;2.30;;;;;;;23.79;50.64;99801.48;105741;1251;63793;-74
2023/07/09 06:55:20;;;;;;;3.20;2.40;;;;;;;23.83;50.55;99798.08;105712;1251;60382;-74
2023/07/09 06:57:47;;;;;;;3.20;2.40;;;;;;;23.82;50.67;99800.83;105917;1255;60527;-73
2023/07/09 07:00:14;;;;;;;4.80;2.40;;;;;;;23.89;50.69;99800.73;105940;1251;65033;-73
2023/07/09 07:02:40;;;;;;;5.10;2.60;;;;;;;23.91;50.66;99798.08;105907;1251;60533;-74
2023/07/09 07:05:07;;;;;;;3.10;2.40;;;;;;;23.97;50.47;99798.86;105872;1256;62813;-74
2023/07/09 07:07:34;;;;;;;3.60;2.30;;;;;;;24.05;50.57;99797.48;106026;1251;60370;-74
2023/07/09 07:10:03;;;;;;;4.20;2.50;;;;;;;24.16;50.53;99800.95;105829;1255;60480;-75
2023/07/09 07:12:30;;;;;;;6.20;2.70;;;;;;;24.25;50.67;99803.27;105964;1256;65072;-75
2023/07/09 07:14:57;;;;;;;7.20;2.60;;;;;;;24.33;50.34;99807.73;105639;1261;60514;-75
2023/07/09 07:17:23;;;;;;;4.00;2.20;;;;;;;24.36;49.90;99811.18;105977;1254;64087;-76
2023/07/09 07:19:50;;;;;;;3.70;2.60;;;;;;;24.37;49.50;99807.21;105956;1254;60364;-75
2023/07/09 07:22:17;;;;;;;7.30;2.30;;;;;;;24.38;49.51;99806.42;105999;1256;60400;-73
2023/07/09 07:24:44;;;;;;;7.30;2.50;;;;;;;24.40;49.45;99807.69;106094;1257;65253;-77
2023/07/09 07:27:11;;;;;;;4.00;2.60;;;;;;;24.45;49.56;99810.63;105998;1254;60437;-75
2023/07/09 07:29:38;;;;;;;5.30;2.50;;;;;;;24.50;49.48;99810.23;105877;1254;64080;-77
2023/07/09 07:32:05;;;;;;;6.70;2.60;;;;;;;24.54;49.46;99813.28;105849;1266;60412;-74
2023/07/09 07:34:32;;;;;;;4.10;2.30;;;;;;;24.58;49.30;99820.88;105491;1253;188477;-75
2023/07/09 07:36:59;;;;;;;5.10;2.40;;;;;;;24.62;49.43;99823.17;105762;1257;65172;-76
2023/07/09 07:39:25;;;;;;;3.80;2.60;;;;;;;24.69;49.59;99818.61;105845;1254;60443;-79
2023/07/09 07:41:52;;;;;;;5.00;2.60;;;;;;;24.76;49.34;99816.11;105840;1256;64097;-75
2023/07/09 07:44:18;;;;;;;5.40;2.40;;;;;;;24.77;48.88;99818.34;105718;1258;60397;-76
2023/07/09 07:46:45;;;;;;;5.60;2.40;;;;;;;24.75;48.78;99817.34;105757;1254;60588;-79
2023/07/09 07:49:12;;;;;;;6.00;3.10;;;;;;;24.79;49.25;99816.08;105772;1254;63791;-75
2023/07/09 07:51:38;;;;;;;5.80;2.80;;;;;;;24.86;49.30;99818.27;105766;1257;60432;-74
2023/07/09 07:54:06;;;;;;;5.70;2.60;;;;;;;24.93;49.30;99815.69;105816;1255;64076;-74
2023/07/09 07:56:33;;;;;;;4.10;2.40;;;;;;;24.98;49.30;99820.45;105821;1253;60443;-76
2023/07/09 07:59:03;;;;;;;3.50;2.40;;;;;;;25.06;49.19;99823.55;105937;1253;60528;-74
2023/07/09 08:01:29;;;;;;;4.40;2.40;;;;;;;25.14;48.97;99821.86;105801;1253;65162;-75
2023/07/09 08:03:56;;;;;;;5.40;2.70;;;;;;;25.21;48.86;99824.42;105770;1254;60437;-77
2023/07/09 08:06:23;;;;;;;8.20;2.50;;;;;;;25.29;49.03;99820.20;106138;1251;63971;-77
2023/07/09 08:08:50;;;;;;;4.50;2.20;;;;;;;25.39;49.13;99818.33;105973;1251;60425;-75
2023/07/09 08:11:17;;;;;;;4.50;2.60;;;;;;;25.51;49.06;99818.22;105820;1258;60785;-75
2023/07/09 08:13:44;;;;;;;3.90;2.20;;;;;;;25.67;49.02;99818.34;105935;1256;65126;-74
2023/07/09 08:16:11;;;;;;;4.50;2.40;;;;;;;25.82;48.59;99819.58;105917;1251;60440;-76
2023/07/09 08:18:38;;;;;;;9.30;2.70;;;;;;;25.92;48.01;99819.75;106013;1257;64055;-78
2023/07/09 08:21:05;;;;;;;8.30;2.60;;;;;;;26.00;48.03;99821.40;105802;1251;60636;-78
2023/07/09 08:23:32;;;;;;;5.70;2.50;;;;;;;26.10;47.79;99825.63;105757;1251;60622;-78
2023/07/09 08:26:02;;;;;;;3.50;2.30;;;;;;;26.21;47.47;99821.59;105905;1255;65223;-73
2023/07/09 08:28:30;;;;;;;3.20;2.20;;;;;;;26.32;47.30;99819.30;105823;1256;60469;-75
2023/07/09 08:30:57;;;;;;;5.40;2.50;;;;;;;26.43;47.38;99823.27;105935;1257;63936;-76
2023/07/09 08:33:24;;;;;;;4.40;2.60;;;;;;;26.53;47.22;99824.91;105888;1253;60416;-73
2023/07/09 08:35:52;;;;;;;4.00;2.30;;;;;;;26.61;46.92;99822.25;105731;1253;60333;-74
2023/07/09 08:38:19;;;;;;;3.30;2.20;;;;;;;26.68;46.91;99821.91;105951;1256;65131;-73
2023/07/09 08:41:00;;;;;;;3.50;2.30;;;;;;;26.75;46.19;99820.96;105751;1254;60520;-74
2023/07/09 08:43:49;;;;;;;3.70;2.30;;;;;;;26.78;45.84;99814.47;105734;1254;64141;-72
2023/07/09 08:46:27;;;;;;;3.30;2.00;;;;;;;26.86;46.45;99817.76;105537;1259;60559;-74
2023/07/09 08:48:54;;;;;;;8.00;2.20;;;;;;;26.99;46.20;99818.77;105715;1257;60351;-75
2023/07/09 08:51:35;;;;;;;4.60;2.40;;;;;;;27.12;46.20;99823.17;105750;1254;65158;-74
2023/07/09 08:54:01;;;;;;;6.00;2.20;;;;;;;27.26;45.51;99817.92;105834;1251;60460;-74
2023/07/09 08:56:31;;;;;;;6.70;2.40;;;;;;;27.32;45.27;99822.91;105792;1256;63886;-73
2023/07/09 08:58:59;;;;;;;4.30;2.30;;;;;;;27.40;45.23;99823.59;105690;1251;60597;-74
2023/07/09 09:01:37;;;;;;;3.40;2.10;;;;;;;27.50;44.90;99818.40;105925;1251;60425;-74
2023/07/09 09:04:27;;;;;;;4.70;2.30;;;;;;;27.61;44.79;99820.43;105817;1256;65200;-75
2023/07/09 09:06:59;;;;;;;3.40;2.10;;;;;;;27.71;44.26;99820.65;106027;1254;60466;-75
2023/07/09 09:09:36;;;;;;;4.30;2.50;;;;;;;27.77;44.08;99820.42;105997;1255;65754;-74
2023/07/09 09:12:18;;;;;;;4.80;1.90;;;;;;;27.81;43.86;99820.01;105719;1254;60438;-75
2023/07/09 09:15:09;;;;;;;4.30;1.90;;;;;;;27.88;44.38;99823.96;105797;1254;60425;-73
2023/07/09 09:17:37;;;;;;;4.90;2.10;;;;;;;28.07;43.95;99825.77;105748;1257;64974;-75
2023/07/09 09:20:08;;;;;;;4.00;2.30;;;;;;;28.21;43.39;99821.13;105866;1251;60444;-75
2023/07/09 09:22:43;;;;;;;4.80;2.30;;;;;;;28.30;42.47;99821.49;105771;1251;64030;-75
2023/07/09 09:25:27;;;;;;;3.50;1.90;;;;;;;28.37;42.54;99822.46;105813;1257;60431;-74
2023/07/09 09:27:54;;;;;;;4.60;1.90;;;;;;;28.54;43.10;99820.11;105791;1251;60555;-75
2023/07/09 09:30:23;;;;;;;6.30;1.90;;;;;;;28.77;42.92;99822.02;105742;1257;65008;-75
2023/07/09 09:32:55;;;;;;;4.10;2.20;;;;;;;28.97;41.80;99817.31;106042;1256;60414;-76
2023/07/09 09:35:36;;;;;;;3.80;1.90;;;;;;;29.15;41.68;99813.58;105841;1251;64181;-74
2023/07/09 09:38:03;;;;;;;3.60;1.90;;;;;;;29.35;40.87;99816.88;106047;1255;60326;-77
2023/07/09 09:40:34;;;;;;;4.30;2.10;;;;;;;29.53;40.55;99820.91;105857;1251;60556;-76
2023/07/09 09:43:01;;;;;;;3.90;2.20;;;;;;;29.71;40.10;99822.52;105827;1254;65183;-76
2023/07/09 09:45:35;;;;;;;5.40;2.00;;;;;;;29.83;40.04;99821.91;105791;1251;60591;-75
2023/07/09 09:48:11;;;;;;;5.30;1.90;;;;;;;29.94;39.78;99822.74;105741;1251;64253;-76
2023/07/09 09:50:39;;;;;;;3.60;2.10;;;;;;;30.01;38.63;99822.15;105997;1251;60394;-75
2023/07/09 09:53:07;;;;;;;2.50;1.70;;;;;;;30.00;38.23;99823.10;105958;1251;60460;-77
2023/07/09 09:55:35;;;;;;;4.20;1.90;;;;;;;30.00;38.20;99820.83;106152;1256;65073;-73
2023/07/09 09:58:02;;;;;;;5.80;2.00;;;;;;;30.04;38.06;99819.38;105970;1257;60476;-75
2023/07/09 10:00:31;;;;;;;4.40;1.90;;;;;;;30.11;37.28;99816.39;106134;1254;63712;-75
2023/07/09 10:03:03;;;;;;;5.70;1.90;;;;;;;30.14;36.13;99816.31;106187;1253;60479;-76
2023/07/09 10:05:44;;;;;;;4.20;1.90;;;;;;;30.16;36.46;99814.03;106345;1251;60258;-73
2023/07/09 10:08:49;;;;;;;3.70;2.00;;;;;;;30.29;36.73;99815.17;106184;1256;65091;-75
2023/07/09 10:11:26;;;;;;;3.10;1.90;;;;;;;30.47;36.83;99817.55;106004;1251;60562;-74
2023/07/09 10:13:55;;;;;;;3.40;1.80;;;;;;;30.65;36.46;99822.38;106099;1251;63829;-76
2023/07/09 10:16:38;;;;;;;5.10;1.90;;;;;;;30.84;36.22;99822.30;106500;1254;60634;-76
2023/07/09 10:19:20;;;;;;;2.70;1.70;;;;;;;31.05;35.66;99820.38;106404;1252;61004;-74
2023/07/09 10:21:57;;;;;;;;;;;;;;;31.15;35.07;99820.06;106553;1251;64896;-74
2023/07/09 10:24:52;;;;;;;4.70;2.10;;;;;;;31.21;34.91;99821.08;106493;1256;60454;-74
2023/07/09 10:27:29;;;;;;;4.50;1.80;;;;;;;31.27;34.70;99823.84;106417;1251;64027;-74
2023/07/09 10:30:14;;;;;;;2.70;1.70;;;;;;;31.31;34.79;99830.38;106607;1251;60523;-74
2023/07/09 10:33:09;;;;;;;3.80;1.50;;;;;;;31.38;33.84;99833.12;107261;1253;60423;-76
2023/07/09 10:36:08;;;;;;;4.50;1.60;;;;;;;31.38;33.56;99829.91;106780;1253;64277;-74
2023/07/09 10:39:10;;;;;;;4.90;1.80;;;;;;;31.41;33.66;99833.77;106404;1254;67401;-74
2023/07/09 10:41:38;;;;;;;6.10;1.80;;;;;;;31.44;33.32;99832.61;106522;1253;62612;-74
2023/07/09 10:44:38;;;;;;;6.90;1.80;;;;;;;31.45;33.64;99836.88;106085;1252;60506;-74
2023/07/09 10:47:13;;;;;;;6.00;1.80;;;;;;;31.51;33.95;99840.48;105834;1257;60432;-74
2023/07/09 10:49:41;;;;;;;3.50;1.90;;;;;;;31.57;33.42;99840.33;105861;1251;65339;-74
2023/07/09 10:52:30;;;;;;;2.40;1.70;;;;;;;31.58;33.10;99845.14;105746;1257;60509;-74
2023/07/09 10:55:24;;;;;;;5.10;1.70;;;;;;;31.55;32.85;99839.28;106174;1251;64030;-74
2023/07/09 10:58:29;;;;;;;6.60;1.70;;;;;;;31.53;33.33;99841.79;106037;1254;60617;-74
2023/07/09 11:00:59;;;;;;;2.90;1.70;;;;;;;31.58;33.26;99845.34;106063;1251;60467;-75
2023/07/09 11:03:40;;;;;;;4.50;1.60;;;;;;;31.70;32.60;99836.72;106144;1257;65202;-74
2023/07/09 11:06:17;;;;;;;3.80;1.70;;;;;;;31.86;32.90;99839.02;105982;1257;60476;-75
2023/07/09 11:08:44;;;;;;;4.70;1.90;;;;;;;32.03;32.37;99839.81;106202;1251;64011;-75
2023/07/09 11:11:17;;;;;;;2.70;1.50;;;;;;;32.17;31.66;99840.88;106127;1256;60459;-75
2023/07/09 11:13:57;;;;;;;3.80;1.60;;;;;;;32.31;30.93;99846.66;106135;1254;60530;-75
2023/07/09 11:16:32;;;;;;;2.80;1.70;;;;;;;32.46;30.89;99848.96;106120;1251;63952;-76
2023/07/09 11:19:01;;;;;;;4.10;1.90;;;;;;;32.58;30.51;99848.48;106091;1251;61104;-77
2023/07/09 11:21:28;;;;;;;2.60;1.60;;;;;;;32.63;29.99;99855.31;106055;1251;63721;-76
2023/07/09 11:23:58;;;;;;;4.10;1.50;;;;;;;32.60;29.83;99850.43;105825;1257;60603;-75
2023/07/09 11:26:30;;;;;;;3.90;1.80;;;;;;;32.55;29.57;99852.55;105936;1256;60785;-76
2023/07/09 11:29:01;;;;;;;2.30;1.40;;;;;;;32.51;30.00;99849.27;105936;1253;65236;-78
2023/07/09 11:31:34;;;;;;;6.20;1.30;;;;;;;32.53;29.91;99851.63;105914;1256;60470;-77
2023/07/09 11:34:06;;;;;;;2.80;1.50;;;;;;;32.57;29.87;99854.27;105869;1253;63879;-77
2023/07/09 11:36:35;;;;;;;5.80;1.40;;;;;;;32.54;29.39;99853.14;105894;1251;60329;-75
2023/07/09 11:39:01;;;;;;;4.50;1.40;;;;;;;32.41;28.91;99854.27;105955;1251;60428;-75